createdAt,value
2023-05-14T00:00:58.050Z,13.44
2023-05-14T00:01:58.070Z,13.42
2023-05-14T00:02:58.183Z,13.42
2023-05-14T00:03:58.171Z,13.41
2023-05-14T00:04:57.985Z,13.39
2023-05-14T00:05:58.002Z,13.37
2023-05-14T00:06:58.005Z,13.37
2023-05-14T00:07:57.973Z,13.38
2023-05-14T00:08:57.928Z,13.37
2023-05-14T00:09:57.940Z,13.35
2023-05-14T00:10:57.940Z,13.35
2023-05-14T00:11:57.923Z,13.35
2023-05-14T00:12:57.914Z,13.33
2023-05-14T00:13:57.904Z,13.31
2023-05-14T00:14:57.871Z,13.30
2023-05-14T00:15:57.948Z,13.28
2023-05-14T00:16:57.847Z,13.28
2023-05-14T00:17:57.910Z,13.27
2023-05-14T00:18:57.959Z,13.28
2023-05-14T00:19:57.834Z,13.27
2023-05-14T00:20:57.813Z,13.23
2023-05-14T00:21:57.810Z,13.22
2023-05-14T00:22:57.782Z,13.22
2023-05-14T00:23:57.785Z,13.20
2023-05-14T00:24:57.773Z,13.18
2023-05-14T00:25:57.771Z,13.16
2023-05-14T00:26:57.741Z,13.15
2023-05-14T00:27:57.752Z,13.13
2023-05-14T00:28:57.718Z,13.15
2023-05-14T00:29:57.722Z,13.11
2023-05-14T00:30:57.741Z,13.11
2023-05-14T00:31:57.711Z,13.11
2023-05-14T00:32:57.697Z,13.13
2023-05-14T00:33:57.683Z,13.09
2023-05-14T00:34:57.672Z,13.08
2023-05-14T00:35:57.718Z,13.08
2023-05-14T00:36:57.640Z,13.08
2023-05-14T00:37:57.666Z,13.08
2023-05-14T00:38:57.623Z,13.09
2023-05-14T00:39:57.635Z,13.09
2023-05-14T00:40:57.602Z,13.08
2023-05-14T00:41:57.620Z,13.05
2023-05-14T00:42:57.579Z,13.05
2023-05-14T00:43:57.583Z,13.04
2023-05-14T00:44:57.588Z,13.04
2023-05-14T00:45:57.561Z,13.03
2023-05-14T00:46:57.556Z,13.01
2023-05-14T00:47:57.574Z,13.00
2023-05-14T00:48:57.550Z,13.00
2023-05-14T00:49:57.501Z,13.00
2023-05-14T00:50:57.507Z,12.98
2023-05-14T00:51:57.491Z,12.97
2023-05-14T00:52:57.458Z,12.97
2023-05-14T00:53:57.463Z,12.95
2023-05-14T00:54:57.449Z,12.93
2023-05-14T00:55:57.456Z,12.91
2023-05-14T00:56:57.425Z,12.90
2023-05-14T00:57:57.443Z,12.86
2023-05-14T00:58:57.400Z,12.87
2023-05-14T00:59:57.409Z,12.86
2023-05-14T01:00:57.448Z,12.85
2023-05-14T01:01:57.390Z,12.80
2023-05-14T01:02:57.408Z,12.79
2023-05-14T01:03:57.641Z,12.76
2023-05-14T01:04:57.332Z,12.73
2023-05-14T01:05:57.386Z,12.75
2023-05-14T01:06:57.308Z,12.76
2023-05-14T01:07:57.308Z,12.76
2023-05-14T01:08:57.295Z,12.73
2023-05-14T01:09:57.296Z,12.72
2023-05-14T01:10:57.269Z,12.70
2023-05-14T01:11:57.317Z,12.72
2023-05-14T01:12:57.268Z,12.73
2023-05-14T01:13:57.247Z,12.72
2023-05-14T01:14:57.269Z,12.68
2023-05-14T01:15:57.240Z,12.70
2023-05-14T01:16:57.278Z,12.70
2023-05-14T01:17:57.223Z,12.72
2023-05-14T01:18:57.201Z,12.72
2023-05-14T01:19:57.208Z,12.68
2023-05-14T01:20:57.184Z,12.68
2023-05-14T01:21:57.219Z,12.65
2023-05-14T01:22:57.161Z,12.65
2023-05-14T01:23:57.132Z,12.64
2023-05-14T01:24:57.134Z,12.62
2023-05-14T01:25:57.164Z,12.61
2023-05-14T01:26:57.130Z,12.60
2023-05-14T01:27:57.089Z,12.60
2023-05-14T01:28:57.086Z,12.60
2023-05-14T01:29:57.072Z,12.55
2023-05-14T06:00:55.209Z,13.03
2023-05-14T06:01:56.190Z,13.09
2023-05-14T06:02:57.939Z,13.12
2023-05-14T06:03:56.153Z,13.16
2023-05-14T06:04:56.198Z,13.16
2023-05-14T06:05:56.144Z,13.20
2023-05-14T06:06:56.142Z,13.25
2023-05-14T06:07:56.171Z,13.25
2023-05-14T06:08:56.176Z,13.23
2023-05-14T06:09:56.093Z,13.25
2023-05-14T06:10:56.106Z,13.25
2023-05-14T06:11:56.077Z,13.27
2023-05-14T06:12:56.089Z,13.28
2023-05-14T06:13:56.103Z,13.25
2023-05-14T06:14:56.089Z,13.23
2023-05-14T06:15:56.021Z,13.20
2023-05-14T06:16:56.076Z,13.25
2023-05-14T06:17:56.057Z,13.25
2023-05-14T06:18:56.044Z,13.28
2023-05-14T06:19:56.032Z,13.28
2023-05-14T06:20:56.034Z,13.28
2023-05-14T06:21:55.982Z,13.35
2023-05-14T06:22:55.981Z,13.37
2023-05-14T06:23:55.933Z,13.39
2023-05-14T06:24:55.941Z,13.41
2023-05-14T06:25:55.915Z,13.46
2023-05-14T06:26:55.958Z,13.49
2023-05-14T06:27:55.897Z,13.52
2023-05-14T06:28:55.894Z,13.57
2023-05-14T06:29:55.884Z,13.59
2023-05-14T06:30:55.900Z,13.62
2023-05-14T06:31:55.881Z,13.67
2023-05-14T06:32:55.901Z,13.70
2023-05-14T06:33:55.837Z,13.72
2023-05-14T06:34:55.833Z,13.74
2023-05-14T06:35:55.833Z,13.72
2023-05-14T06:36:55.821Z,13.74
2023-05-14T06:37:55.792Z,13.75
2023-05-14T06:38:55.805Z,13.74
2023-05-14T06:39:57.734Z,13.77
2023-05-14T06:40:55.768Z,13.78
2023-05-14T06:41:55.755Z,13.79
2023-05-14T06:42:55.752Z,13.81
2023-05-14T06:43:55.735Z,13.83
2023-05-14T06:44:55.771Z,13.83
2023-05-14T06:45:55.739Z,13.81
2023-05-14T06:46:55.684Z,13.81
2023-05-14T06:47:55.784Z,13.83
2023-05-14T06:48:57.969Z,13.86
2023-05-14T06:49:55.683Z,13.87
2023-05-14T06:50:55.667Z,13.92
2023-05-14T06:51:55.651Z,13.93
2023-05-14T06:52:55.629Z,13.96
2023-05-14T06:53:55.641Z,13.96
2023-05-14T06:54:55.586Z,13.97
2023-05-14T06:55:55.616Z,13.96
2023-05-14T06:56:55.600Z,14.03
2023-05-14T06:57:55.593Z,13.99
2023-05-14T06:58:55.562Z,14.03
2023-05-14T06:59:55.550Z,14.03
2023-05-14T07:00:55.532Z,14.03
2023-05-14T07:01:55.648Z,14.04
2023-05-14T07:02:55.566Z,14.05
2023-05-14T07:03:55.562Z,14.07
2023-05-14T07:04:55.492Z,14.08
2023-05-14T07:05:55.553Z,14.08
2023-05-14T07:06:55.465Z,14.10
2023-05-14T07:07:55.486Z,14.10
2023-05-14T07:08:55.446Z,14.11
2023-05-14T07:09:55.460Z,14.11
2023-05-14T07:10:55.423Z,14.12
2023-05-14T07:11:55.439Z,14.12
2023-05-14T07:12:55.399Z,14.14
2023-05-14T07:13:55.459Z,14.15
2023-05-14T07:14:55.401Z,14.14
2023-05-14T07:15:55.390Z,14.17
2023-05-14T07:16:55.454Z,14.17
2023-05-14T07:17:55.477Z,14.18
2023-05-14T07:18:55.434Z,14.20
2023-05-14T07:19:55.412Z,14.20
2023-05-14T07:20:55.336Z,14.22
2023-05-14T07:21:55.318Z,14.22
2023-05-14T07:22:55.302Z,14.23
2023-05-14T07:23:55.302Z,14.23
2023-05-14T07:24:55.273Z,14.23
2023-05-14T07:25:55.310Z,14.25
2023-05-14T07:26:55.308Z,14.26
2023-05-14T07:27:55.253Z,14.26
2023-05-14T07:28:55.223Z,14.26
2023-05-14T07:29:55.240Z,14.29
2023-05-14T07:30:55.273Z,14.29
2023-05-14T07:31:55.205Z,14.29
2023-05-14T07:32:55.533Z,14.29
2023-05-14T07:33:55.177Z,14.32
2023-05-14T07:34:55.155Z,14.35
2023-05-14T07:35:55.172Z,14.33
2023-05-14T07:36:55.149Z,14.35
2023-05-14T07:37:55.153Z,14.36
2023-05-14T07:38:55.117Z,14.37
2023-05-14T07:39:55.138Z,14.41
2023-05-14T07:40:55.094Z,14.41
2023-05-14T07:41:55.109Z,14.41
2023-05-14T07:42:55.089Z,14.43
2023-05-14T07:43:55.105Z,14.45
2023-05-14T07:44:55.051Z,14.48
2023-05-14T07:45:55.089Z,14.53
2023-05-14T07:46:55.070Z,14.54
2023-05-14T07:47:55.182Z,14.55
2023-05-14T07:48:55.012Z,14.55
2023-05-14T07:49:55.026Z,14.54
2023-05-14T07:50:54.992Z,14.55
2023-05-14T07:51:54.979Z,14.58
2023-05-14T07:52:55.037Z,14.59
2023-05-14T07:53:54.962Z,14.62
2023-05-14T07:54:54.958Z,14.65
2023-05-14T07:55:54.946Z,14.65
2023-05-14T07:56:54.940Z,14.68
2023-05-14T07:57:54.921Z,14.69
2023-05-14T07:58:54.943Z,14.70
2023-05-14T07:59:54.921Z,14.72
2023-05-14T08:00:54.877Z,14.73
2023-05-14T08:01:54.961Z,14.78
2023-05-14T08:02:55.084Z,14.79
2023-05-14T08:03:55.005Z,14.84
2023-05-14T08:04:54.829Z,14.88
2023-05-14T08:05:54.875Z,14.91
2023-05-14T08:06:54.811Z,14.91
2023-05-14T08:07:54.816Z,14.91
2023-05-14T08:08:54.810Z,14.91
2023-05-14T08:09:54.818Z,14.94
2023-05-14T08:10:54.807Z,14.96
2023-05-14T08:11:54.781Z,14.96
2023-05-14T08:12:54.776Z,14.99
2023-05-14T08:13:54.749Z,15.02
2023-05-14T08:14:54.729Z,15.04
2023-05-14T08:15:54.789Z,15.07
2023-05-14T08:16:54.754Z,15.09
2023-05-14T08:17:54.861Z,15.09
2023-05-14T08:18:54.725Z,15.11
2023-05-14T08:19:54.682Z,15.17
2023-05-14T08:20:54.694Z,15.18
2023-05-14T08:21:54.682Z,15.21
2023-05-14T08:22:54.635Z,15.21
2023-05-14T08:23:54.651Z,15.24
2023-05-14T08:24:54.621Z,15.25
2023-05-14T08:25:54.617Z,15.28
2023-05-14T08:26:54.613Z,15.31
2023-05-14T08:27:54.615Z,15.35
2023-05-14T08:28:54.583Z,15.36
2023-05-14T08:29:54.579Z,15.39
2023-05-14T08:30:54.668Z,15.40
2023-05-14T08:31:54.565Z,15.44
2023-05-14T08:32:54.968Z,15.46
2023-05-14T08:33:54.566Z,15.51
2023-05-14T08:34:54.506Z,15.52
2023-05-14T08:35:54.522Z,15.54
2023-05-14T08:36:54.509Z,15.55
2023-05-14T08:37:54.655Z,15.57
2023-05-14T08:38:54.471Z,15.61
2023-05-14T08:39:54.483Z,15.64
2023-05-14T08:40:54.456Z,15.70
2023-05-14T08:41:54.469Z,15.75
2023-05-14T08:42:54.447Z,15.79
2023-05-14T08:43:54.432Z,15.84
2023-05-14T08:44:54.401Z,15.94
2023-05-14T08:45:54.399Z,16.00
2023-05-14T08:46:54.381Z,16.08
2023-05-14T08:47:54.519Z,16.13
2023-05-14T08:48:54.465Z,16.13
2023-05-14T08:49:54.368Z,16.17
2023-05-14T08:50:54.347Z,16.20
2023-05-14T08:51:54.336Z,16.26
2023-05-14T08:52:54.316Z,16.29
2023-05-14T08:53:54.351Z,16.32
2023-05-14T08:54:54.300Z,16.39
2023-05-14T08:55:54.287Z,16.42
2023-05-14T08:56:54.290Z,16.42
2023-05-14T08:57:54.295Z,16.46
2023-05-14T08:58:54.237Z,16.51
2023-05-14T08:59:54.278Z,16.51
2023-05-14T09:00:54.233Z,16.51
2023-05-14T09:01:54.257Z,16.53
2023-05-14T09:02:54.238Z,16.51
2023-05-14T09:03:54.222Z,16.54
2023-05-14T09:04:54.188Z,16.53
2023-05-14T09:05:54.225Z,16.57
2023-05-14T09:06:54.165Z,16.57
2023-05-14T09:07:54.160Z,16.58
2023-05-14T09:08:54.141Z,16.60
2023-05-14T09:09:54.177Z,16.60
2023-05-14T09:10:54.151Z,16.61
2023-05-14T09:11:54.154Z,16.61
2023-05-14T09:12:54.098Z,16.66
2023-05-14T09:13:54.116Z,16.68
2023-05-14T09:14:54.077Z,16.74
2023-05-14T09:15:54.077Z,16.72
2023-05-14T09:16:54.096Z,16.69
2023-05-14T09:17:54.178Z,16.71
2023-05-14T09:18:54.038Z,16.69
2023-05-14T09:19:54.035Z,16.71
2023-05-14T09:20:54.006Z,16.71
2023-05-14T09:21:54.018Z,16.69
2023-05-14T09:22:53.982Z,16.69
2023-05-14T09:23:54.023Z,16.66
2023-05-14T09:24:53.970Z,16.68
2023-05-14T09:25:53.964Z,16.69
2023-05-14T09:26:53.953Z,16.69
2023-05-14T09:27:53.942Z,16.74
2023-05-14T09:28:53.917Z,16.75
2023-05-14T09:29:53.954Z,16.78
2023-05-14T09:30:53.910Z,16.79
2023-05-14T09:31:53.960Z,16.83
2023-05-14T09:32:53.964Z,16.87
2023-05-14T09:33:53.901Z,16.90
2023-05-14T09:34:53.860Z,16.96
2023-05-14T09:35:53.858Z,16.99
2023-05-14T09:36:53.822Z,17.01
2023-05-14T09:37:53.833Z,17.08
2023-05-14T09:38:53.805Z,17.11
2023-05-14T09:39:53.812Z,17.14
2023-05-14T09:40:53.834Z,17.19
2023-05-14T09:41:53.797Z,17.23
2023-05-14T09:42:53.753Z,17.27
2023-05-14T09:43:53.768Z,17.29
2023-05-14T09:44:53.759Z,17.30
2023-05-14T09:45:53.746Z,17.33
2023-05-14T09:46:53.833Z,17.39
2023-05-14T09:47:53.826Z,17.42
2023-05-14T09:48:53.701Z,17.44
2023-05-14T09:49:53.702Z,17.49
2023-05-14T09:50:53.671Z,17.52
2023-05-14T09:51:53.687Z,17.56
2023-05-14T09:52:53.668Z,17.59
2023-05-14T09:53:53.668Z,17.60
2023-05-14T09:54:53.640Z,17.65
2023-05-14T09:55:53.638Z,17.68
2023-05-14T09:56:55.630Z,17.70
2023-05-14T09:57:53.643Z,17.71
2023-05-14T09:58:53.579Z,17.71
2023-05-14T09:59:53.589Z,17.76
2023-05-14T10:00:53.577Z,17.76
2023-05-14T10:01:53.560Z,17.80
2023-05-14T10:02:53.591Z,17.82
2023-05-14T10:03:53.602Z,17.85
2023-05-14T10:04:53.553Z,17.83
2023-05-14T10:05:53.531Z,17.86
2023-05-14T10:06:53.497Z,17.87
2023-05-14T10:07:53.500Z,17.87
2023-05-14T10:08:53.474Z,17.87
2023-05-14T10:09:53.500Z,17.89
2023-05-14T10:10:53.452Z,17.90
2023-05-14T10:11:53.470Z,17.90
2023-05-14T10:12:53.488Z,17.89
2023-05-14T10:13:53.462Z,17.95
2023-05-14T10:14:53.418Z,17.98
2023-05-14T10:15:53.456Z,17.98
2023-05-14T10:16:53.503Z,17.98
2023-05-14T10:17:53.424Z,18.00
2023-05-14T10:18:54.517Z,18.01
2023-05-14T10:19:53.364Z,18.03
2023-05-14T10:20:53.366Z,18.07
2023-05-14T10:21:53.348Z,18.11
2023-05-14T10:22:53.339Z,18.11
2023-05-14T10:23:53.327Z,18.16
2023-05-14T10:24:53.303Z,18.18
2023-05-14T10:25:53.304Z,18.18
2023-05-14T10:26:53.298Z,18.18
2023-05-14T10:27:53.279Z,18.20
2023-05-14T10:28:53.259Z,18.16
2023-05-14T10:29:53.257Z,18.16
2023-05-14T10:30:53.280Z,18.18
2023-05-14T10:31:53.268Z,18.23
2023-05-14T10:32:53.246Z,18.28
2023-05-14T10:33:53.219Z,18.33
2023-05-14T10:34:53.184Z,18.37
2023-05-14T10:35:53.220Z,18.40
2023-05-14T10:36:53.172Z,18.44
2023-05-14T10:37:53.214Z,18.44
2023-05-14T10:38:53.152Z,18.49
2023-05-14T10:39:53.165Z,18.53
2023-05-14T10:40:54.256Z,18.59
2023-05-14T10:41:53.138Z,18.59
2023-05-14T10:42:53.123Z,18.65
2023-05-14T10:43:53.113Z,18.70
2023-05-14T10:44:53.096Z,18.73
2023-05-14T10:45:53.087Z,18.74
2023-05-14T10:46:53.080Z,18.74
2023-05-14T10:47:53.095Z,18.70
2023-05-14T10:48:53.089Z,18.70
2023-05-14T10:49:53.053Z,18.73
2023-05-14T10:50:53.190Z,18.75
2023-05-14T10:51:53.028Z,18.78
2023-05-14T10:52:53.015Z,18.78
2023-05-14T10:53:52.996Z,18.77
2023-05-14T10:54:53.035Z,18.81
2023-05-14T10:55:52.966Z,18.81
2023-05-14T10:56:53.011Z,18.84
2023-05-14T10:57:52.946Z,18.86
2023-05-14T10:58:52.973Z,18.90
2023-05-14T10:59:52.925Z,18.95
2023-05-14T11:00:52.928Z,18.99
2023-05-14T11:01:52.933Z,19.07
2023-05-14T11:02:52.931Z,19.09
2023-05-14T11:03:52.924Z,19.11
2023-05-14T11:04:52.942Z,19.15
2023-05-14T11:05:52.874Z,19.26
2023-05-14T11:06:52.865Z,19.29
2023-05-14T11:07:52.829Z,19.34
2023-05-14T11:08:52.837Z,19.39
2023-05-14T11:09:52.846Z,19.48
2023-05-14T11:10:52.842Z,19.51
2023-05-14T11:11:52.786Z,19.56
2023-05-14T11:12:52.849Z,19.58
2023-05-14T11:13:52.767Z,19.67
2023-05-14T11:14:52.781Z,19.71
2023-05-14T11:15:52.749Z,19.74
2023-05-14T11:16:52.843Z,19.84
2023-05-14T11:17:52.768Z,19.85
2023-05-14T11:18:52.859Z,19.82
2023-05-14T11:19:52.707Z,19.89
2023-05-14T11:20:52.718Z,19.95
2023-05-14T11:21:52.689Z,20.03
2023-05-14T11:22:52.702Z,20.04
2023-05-14T11:23:52.698Z,20.07
2023-05-14T11:24:52.676Z,20.10
2023-05-14T11:25:52.724Z,20.07
2023-05-14T11:26:52.667Z,20.02
2023-05-14T11:27:52.725Z,20.00
2023-05-14T11:28:52.640Z,19.89
2023-05-14T11:29:52.615Z,19.82
2023-05-14T11:30:52.623Z,19.82
2023-05-14T11:31:52.625Z,19.82
2023-05-14T11:32:52.595Z,19.77
2023-05-14T11:33:52.554Z,19.74
2023-05-14T11:34:52.570Z,19.74
2023-05-14T11:35:52.533Z,19.76
2023-05-14T11:36:52.549Z,19.77
2023-05-14T11:37:52.588Z,19.77
2023-05-14T11:38:52.787Z,19.76
2023-05-14T11:39:52.489Z,19.74
2023-05-14T11:40:52.504Z,19.76
2023-05-14T11:41:52.482Z,19.77
2023-05-14T11:42:52.488Z,19.81
2023-05-14T11:43:52.520Z,19.91
2023-05-14T11:44:52.453Z,19.95
2023-05-14T11:45:52.546Z,20.04
2023-05-14T11:46:52.429Z,20.16
2023-05-14T11:47:52.525Z,20.25
2023-05-14T11:48:52.400Z,20.37
2023-05-14T11:49:52.403Z,20.51
2023-05-14T11:50:52.419Z,20.63
2023-05-14T11:51:52.368Z,20.69
2023-05-14T11:52:52.358Z,20.75
2023-05-14T11:53:52.365Z,20.80
2023-05-14T11:54:52.378Z,20.81
2023-05-14T11:55:52.329Z,20.85
2023-05-14T11:56:52.324Z,20.88
2023-05-14T11:57:52.292Z,20.97
2023-05-14T11:58:52.297Z,21.00
2023-05-14T11:59:52.277Z,21.02
2023-05-14T12:00:52.292Z,20.96
2023-05-14T12:01:52.243Z,20.90
2023-05-14T12:02:52.311Z,20.92
2023-05-14T12:03:52.417Z,20.90
2023-05-14T12:04:52.364Z,20.90
2023-05-14T12:05:52.198Z,20.93
2023-05-14T12:06:52.245Z,20.96
2023-05-14T12:07:52.182Z,20.97
2023-05-14T12:08:52.197Z,21.00
2023-05-14T12:09:52.159Z,21.05
2023-05-14T12:10:52.184Z,21.09
2023-05-14T12:11:52.140Z,21.05
2023-05-14T12:12:52.127Z,21.03
2023-05-14T12:13:52.120Z,21.03
2023-05-14T12:14:52.123Z,21.00
2023-05-14T12:15:52.135Z,20.99
2023-05-14T12:16:52.144Z,21.00
2023-05-14T12:17:52.242Z,21.03
2023-05-14T12:18:52.151Z,21.05
2023-05-14T12:19:52.065Z,21.06
2023-05-14T12:20:52.094Z,21.06
2023-05-14T12:21:52.032Z,21.11
2023-05-14T12:22:52.049Z,21.14
2023-05-14T12:23:52.005Z,21.15
2023-05-14T12:24:52.017Z,21.22
2023-05-14T12:25:51.977Z,21.21
2023-05-14T12:26:51.989Z,21.14
2023-05-14T12:27:51.958Z,21.12
2023-05-14T12:28:51.975Z,21.06
2023-05-14T12:29:51.936Z,21.03
2023-05-14T12:30:51.949Z,20.99
2023-05-14T12:31:51.968Z,20.95
2023-05-14T12:32:52.219Z,20.93
2023-05-14T12:33:51.908Z,20.92
2023-05-14T12:34:51.914Z,20.92
2023-05-14T12:35:51.872Z,20.96
2023-05-14T12:36:51.891Z,20.99
2023-05-14T12:37:51.860Z,20.99
2023-05-14T12:38:51.861Z,20.97
2023-05-14T12:39:51.869Z,20.99
2023-05-14T12:40:51.846Z,21.09
2023-05-14T12:41:51.811Z,21.18
2023-05-14T12:42:51.807Z,21.27
2023-05-14T12:43:51.791Z,21.40
2023-05-14T12:44:51.792Z,21.58
2023-05-14T12:45:51.799Z,21.64
2023-05-14T12:46:51.842Z,21.73
2023-05-14T12:47:51.783Z,21.83
2023-05-14T12:48:53.322Z,21.91
2023-05-14T12:49:51.731Z,22.07
2023-05-14T12:50:51.732Z,22.25
2023-05-14T12:51:59.597Z,22.36
2023-05-14T12:52:51.719Z,22.41
2023-05-14T12:53:51.678Z,22.48
2023-05-14T12:54:51.682Z,22.55
2023-05-14T12:55:51.675Z,22.68
2023-05-14T12:56:51.685Z,22.81
2023-05-14T12:57:51.659Z,22.90
2023-05-14T12:58:51.644Z,23.00
2023-05-14T12:59:51.611Z,23.08
2023-05-14T13:00:51.735Z,23.15
2023-05-14T13:01:51.593Z,23.23
2023-05-14T13:02:51.646Z,23.25
2023-05-14T13:03:51.700Z,23.28
2023-05-14T13:04:51.575Z,23.39
2023-05-14T13:05:51.548Z,23.46
2023-05-14T13:06:51.559Z,23.50
2023-05-14T13:07:51.530Z,23.56
2023-05-14T13:08:51.551Z,23.66
2023-05-14T13:09:51.524Z,23.71
2023-05-14T13:10:51.513Z,23.77
2023-05-14T13:11:51.491Z,23.80
2023-05-14T13:12:51.485Z,23.87
2023-05-14T13:13:51.462Z,23.93
2023-05-14T13:14:51.471Z,24.01
2023-05-14T13:15:51.492Z,23.99
2023-05-14T13:16:51.455Z,23.95
2023-05-14T13:17:51.466Z,23.88
2023-05-14T13:18:51.459Z,23.87
2023-05-14T13:19:51.422Z,23.91
2023-05-14T13:20:51.404Z,23.92
2023-05-14T13:21:51.390Z,23.81
2023-05-14T13:22:51.397Z,23.77
2023-05-14T13:23:51.360Z,23.73
2023-05-14T13:24:51.370Z,23.77
2023-05-14T13:25:51.340Z,23.88
2023-05-14T13:26:51.344Z,23.98
2023-05-14T13:27:51.315Z,24.08
2023-05-14T13:28:51.350Z,24.13
2023-05-14T13:29:51.304Z,24.17
2023-05-14T13:30:51.315Z,24.24
2023-05-14T13:31:51.303Z,24.26
2023-05-14T13:32:51.374Z,24.26
2023-05-14T13:33:51.249Z,24.35
2023-05-14T13:34:51.291Z,24.36
2023-05-14T13:35:51.232Z,24.32
2023-05-14T13:36:51.234Z,24.30
2023-05-14T13:37:51.236Z,24.30
2023-05-14T13:38:51.205Z,24.26
2023-05-14T13:39:51.633Z,24.26
2023-05-14T13:40:51.219Z,24.33
2023-05-14T13:41:51.209Z,24.43
2023-05-14T13:42:51.173Z,24.53
2023-05-14T13:43:51.202Z,24.58
2023-05-14T13:44:51.157Z,24.66
2023-05-14T13:45:51.147Z,24.78
2023-05-14T13:46:51.281Z,24.88
2023-05-14T13:47:51.696Z,24.99
2023-05-14T13:48:51.120Z,25.01
2023-05-14T13:49:51.090Z,24.96
2023-05-14T13:50:51.082Z,24.93
2023-05-14T13:51:51.056Z,24.93
2023-05-14T13:52:51.078Z,24.96
2023-05-14T13:53:51.037Z,24.92
2023-05-14T13:54:51.049Z,24.84
2023-05-14T13:55:51.014Z,24.76
2023-05-14T13:56:51.028Z,24.76
2023-05-14T13:57:50.991Z,24.77
2023-05-14T13:58:51.040Z,24.78
2023-05-14T13:59:50.974Z,24.86
2023-05-14T14:00:51.015Z,24.86
2023-05-14T14:01:51.004Z,24.84
2023-05-14T14:02:50.990Z,24.85
2023-05-14T14:03:50.934Z,24.89
2023-05-14T14:04:51.018Z,24.95
2023-05-14T14:05:50.938Z,25.07
2023-05-14T14:06:50.915Z,25.18
2023-05-14T14:07:52.942Z,25.29
2023-05-14T14:08:50.898Z,25.40
2023-05-14T14:09:50.901Z,25.51
2023-05-14T14:10:50.876Z,25.62
2023-05-14T14:11:50.873Z,25.60
2023-05-14T14:12:50.857Z,25.60
2023-05-14T14:13:50.822Z,25.69
2023-05-14T14:14:50.846Z,25.73
2023-05-14T14:15:50.892Z,25.75
2023-05-14T14:16:50.796Z,25.84
2023-05-14T14:17:50.851Z,25.87
2023-05-14T14:18:50.849Z,25.85
2023-05-14T14:19:50.766Z,25.84
2023-05-14T14:20:50.760Z,25.83
2023-05-14T14:22:50.749Z,25.87
2023-05-14T14:23:50.730Z,25.84
2023-05-14T14:24:50.734Z,25.81
2023-05-14T14:25:50.689Z,25.87
2023-05-14T14:26:50.696Z,25.91
2023-05-14T14:27:50.707Z,25.95
2023-05-14T14:28:50.700Z,26.07
2023-05-14T14:29:50.656Z,26.23
2023-05-14T14:30:50.653Z,26.44
2023-05-14T14:31:50.671Z,26.68
2023-05-14T14:32:50.783Z,26.83
2023-05-14T14:33:50.626Z,26.89
2023-05-14T14:34:50.634Z,26.85
2023-05-14T14:35:50.597Z,26.89
2023-05-14T14:36:50.597Z,27.03
2023-05-14T14:37:50.612Z,27.26
2023-05-14T14:38:50.572Z,27.40
2023-05-14T14:39:50.573Z,27.60
2023-05-14T14:40:50.552Z,27.82
2023-05-14T14:41:50.562Z,27.96
2023-05-14T14:42:50.561Z,28.05
2023-05-14T14:43:50.528Z,28.12
2023-05-14T14:44:50.518Z,28.07
2023-05-14T14:45:50.547Z,27.77
2023-05-14T14:46:50.486Z,27.54
2023-05-14T14:47:50.492Z,27.58
2023-05-14T14:48:50.478Z,27.65
2023-05-14T14:49:50.454Z,27.71
2023-05-14T14:50:50.450Z,27.73
2023-05-14T14:51:50.462Z,27.54
2023-05-14T14:52:50.427Z,27.52
2023-05-14T14:53:50.408Z,27.65
2023-05-14T14:54:50.421Z,27.67
2023-05-14T14:55:50.383Z,27.73
2023-05-14T14:56:50.412Z,27.87
2023-05-14T14:57:50.367Z,28.05
2023-05-14T14:58:50.372Z,28.14
2023-05-14T14:59:50.346Z,28.15
2023-05-14T15:00:50.371Z,28.01
2023-05-14T15:01:50.429Z,28.12
2023-05-14T15:02:50.408Z,27.95
2023-05-14T15:03:50.332Z,27.70
2023-05-14T15:04:50.314Z,27.40
2023-05-14T15:05:50.284Z,27.18
2023-05-14T15:06:50.286Z,26.90
2023-05-14T15:07:50.275Z,27.17
2023-05-14T15:08:50.300Z,27.42
2023-05-14T15:09:50.251Z,27.73
2023-05-14T15:10:50.235Z,28.10
2023-05-14T15:11:50.243Z,28.17
2023-05-14T15:12:50.215Z,27.85
2023-05-14T15:13:50.229Z,27.59
2023-05-14T15:14:50.269Z,27.90
2023-05-14T15:15:50.193Z,27.73
2023-05-14T15:16:51.194Z,27.40
2023-05-14T15:17:50.223Z,27.64
2023-05-14T15:18:50.174Z,27.92
2023-05-14T15:19:50.168Z,28.02
2023-05-14T15:20:50.178Z,27.68
2023-05-14T15:21:50.131Z,27.29
2023-05-14T15:22:50.121Z,26.99
2023-05-14T15:23:50.113Z,26.73
2023-05-14T15:24:50.153Z,26.55
2023-05-14T15:25:50.107Z,26.52
2023-05-14T15:26:52.056Z,26.44
2023-05-14T15:27:50.071Z,26.25
2023-05-14T15:28:50.048Z,26.05
2023-05-14T15:29:50.049Z,25.78
2023-05-14T15:30:50.025Z,25.58
2023-05-14T15:31:50.098Z,25.48
2023-05-14T15:32:50.099Z,25.40
2023-05-14T15:33:50.007Z,25.35
2023-05-14T15:34:49.974Z,25.33
2023-05-14T15:35:49.983Z,25.33
2023-05-14T15:36:49.967Z,25.32
2023-05-14T15:37:49.981Z,25.25
2023-05-14T15:38:49.955Z,25.21
2023-05-14T15:39:49.961Z,25.13
2023-05-14T15:40:49.926Z,25.08
2023-05-14T15:41:49.958Z,25.03
2023-05-14T15:42:49.886Z,24.98
2023-05-14T15:43:49.915Z,24.96
2023-05-14T15:44:49.888Z,24.93
2023-05-14T15:45:49.907Z,24.92
2023-05-14T15:46:49.981Z,24.80
2023-05-14T15:47:49.961Z,24.65
2023-05-14T15:48:49.837Z,24.48
2023-05-14T15:49:49.851Z,24.32
2023-05-14T15:50:49.997Z,24.18
2023-05-14T15:51:49.808Z,23.96
2023-05-14T15:52:49.828Z,23.77
2023-05-14T15:53:49.796Z,23.61
2023-05-14T15:54:49.793Z,23.43
2023-05-14T15:55:49.770Z,23.28
2023-05-14T15:56:49.754Z,23.20
2023-05-14T15:57:49.751Z,23.09
2023-05-14T15:58:49.735Z,23.02
2023-05-14T15:59:49.735Z,22.96
2023-05-14T16:00:49.752Z,22.91
2023-05-14T16:01:49.747Z,22.81
2023-05-14T16:02:49.730Z,22.69
2023-05-14T16:03:49.746Z,22.55
2023-05-14T16:04:49.753Z,22.44
2023-05-14T16:05:49.667Z,22.32
2023-05-14T16:06:49.666Z,22.29
2023-05-14T16:07:49.659Z,22.20
2023-05-14T16:08:49.618Z,22.11
2023-05-14T16:09:49.610Z,22.04
2023-05-14T16:10:49.597Z,22.04
2023-05-14T16:11:49.602Z,21.98
2023-05-14T16:12:49.595Z,22.00
2023-05-14T16:13:49.570Z,22.06
2023-05-14T16:14:49.549Z,22.10
2023-05-14T16:15:49.550Z,22.14
2023-05-14T16:16:49.591Z,22.20
2023-05-14T16:17:49.626Z,22.23
2023-05-14T16:18:49.623Z,22.23
2023-05-14T16:19:49.503Z,22.23
2023-05-14T16:20:49.485Z,22.22
2023-05-14T16:21:49.541Z,22.26
2023-05-14T16:22:49.471Z,22.23
2023-05-14T16:23:49.487Z,22.20
2023-05-14T16:24:49.466Z,22.18
2023-05-14T16:25:49.448Z,22.20
2023-05-14T16:26:49.422Z,22.17
2023-05-14T16:27:49.429Z,22.14
2023-05-14T16:28:49.407Z,22.14
2023-05-14T16:29:49.419Z,22.18
2023-05-14T16:30:49.470Z,22.25
2023-05-14T16:31:49.577Z,22.22
2023-05-14T16:32:49.441Z,22.23
2023-05-14T16:33:49.348Z,22.25
2023-05-14T16:34:49.332Z,22.26
2023-05-14T16:35:49.334Z,22.20
2023-05-14T16:36:49.345Z,22.20
2023-05-14T16:37:49.320Z,22.18
2023-05-14T16:39:06.164Z,22.15
2023-05-14T16:39:49.391Z,22.17
2023-05-14T16:40:50.116Z,22.18
2023-05-14T16:41:49.276Z,22.17
2023-05-14T16:42:49.498Z,22.13
2023-05-14T16:43:49.254Z,22.10
2023-05-14T16:44:49.220Z,22.07
2023-05-14T16:45:49.282Z,22.06
2023-05-14T16:46:49.207Z,22.10
2023-05-14T16:47:49.250Z,22.11
2023-05-14T16:48:49.176Z,22.11
2023-05-14T16:49:49.181Z,22.10
2023-05-14T16:50:49.944Z,22.07
2023-05-14T16:51:49.155Z,22.07
2023-05-14T16:52:49.127Z,22.06
2023-05-14T16:53:49.139Z,21.99
2023-05-14T16:54:49.111Z,21.93
2023-05-14T16:55:49.143Z,21.91
2023-05-14T16:56:49.104Z,21.85
2023-05-14T16:57:49.095Z,21.80
2023-05-14T16:58:49.082Z,21.80
2023-05-14T16:59:49.066Z,21.76
2023-05-14T17:00:49.047Z,21.76
2023-05-14T17:01:49.167Z,21.76
2023-05-14T17:02:49.122Z,21.76
2023-05-14T17:03:49.021Z,21.80
2023-05-14T17:04:49.082Z,21.82
2023-05-14T17:05:49.015Z,21.83
2023-05-14T17:06:49.264Z,21.80
2023-05-14T17:07:49.067Z,21.80
2023-05-14T17:08:48.949Z,21.76
2023-05-14T17:09:48.959Z,21.64
2023-05-14T17:10:48.957Z,21.61
2023-05-14T17:11:48.930Z,21.50
2023-05-14T17:12:48.904Z,21.40
2023-05-14T17:13:48.936Z,21.35
2023-05-14T17:14:48.907Z,21.30
2023-05-14T17:15:48.930Z,21.27
2023-05-14T17:16:48.856Z,21.24
2023-05-14T17:17:48.878Z,21.20
2023-05-14T17:18:48.903Z,21.18
2023-05-14T17:19:48.883Z,21.17
2023-05-14T17:20:48.820Z,21.17
2023-05-14T17:21:48.841Z,21.12
2023-05-14T17:22:48.798Z,21.14
2023-05-14T17:23:48.803Z,21.06